sensor_id;sensor_type;location;lat;lon;timestamp;pressure;altitude;pressure_sealevel;temperature;humidity
79374;BME280;68844;53.128;17.958;2023-04-01T00:01:06;99088.20;;;9.50;84.40
79374;BME280;68844;53.128;17.958;2023-04-01T00:03:33;99085.15;;;9.55;84.29
79374;BME280;68844;53.128;17.958;2023-04-01T00:06:01;99085.72;;;9.61;84.31
79374;BME280;68844;53.128;17.958;2023-04-01T00:08:28;99084.94;;;9.67;84.34
79374;BME280;68844;53.128;17.958;2023-04-01T00:10:55;99087.67;;;9.73;84.02
79374;BME280;68844;53.128;17.958;2023-04-01T00:13:24;99083.61;;;9.77;83.83
79374;BME280;68844;53.128;17.958;2023-04-01T00:15:54;99087.22;;;9.84;83.62
79374;BME280;68844;53.128;17.958;2023-04-01T00:18:21;99081.67;;;9.88;83.76
79374;BME280;68844;53.128;17.958;2023-04-01T00:20:50;99082.08;;;9.89;83.74
79374;BME280;68844;53.128;17.958;2023-04-01T00:23:18;99081.23;;;9.85;83.54
79374;BME280;68844;53.128;17.958;2023-04-01T00:25:45;99082.45;;;9.74;83.79
79374;BME280;68844;53.128;17.958;2023-04-01T00:28:15;99083.36;;;9.69;83.86
79374;BME280;68844;53.128;17.958;2023-04-01T00:30:42;99082.70;;;9.67;84.59
79374;BME280;68844;53.128;17.958;2023-04-01T00:33:08;99078.46;;;9.60;85.13
79374;BME280;68844;53.128;17.958;2023-04-01T00:35:35;99081.29;;;9.53;85.08
79374;BME280;68844;53.128;17.958;2023-04-01T00:38:02;99081.11;;;9.49;85.14
79374;BME280;68844;53.128;17.958;2023-04-01T00:40:35;99077.40;;;9.49;85.39
79374;BME280;68844;53.128;17.958;2023-04-01T00:43:03;99075.48;;;9.47;85.85
79374;BME280;68844;53.128;17.958;2023-04-01T00:45:35;99075.34;;;9.44;85.92
79374;BME280;68844;53.128;17.958;2023-04-01T00:48:07;99076.32;;;9.41;85.78
79374;BME280;68844;53.128;17.958;2023-04-01T00:50:35;99075.80;;;9.41;86.01
79374;BME280;68844;53.128;17.958;2023-04-01T00:53:04;99076.86;;;9.43;85.76
79374;BME280;68844;53.128;17.958;2023-04-01T00:55:32;99075.77;;;9.46;85.85
79374;BME280;68844;53.128;17.958;2023-04-01T00:58:02;99074.43;;;9.45;85.99
79374;BME280;68844;53.128;17.958;2023-04-01T01:00:30;99075.33;;;9.45;85.77
79374;BME280;68844;53.128;17.958;2023-04-01T01:02:57;99072.73;;;9.42;85.71
79374;BME280;68844;53.128;17.958;2023-04-01T01:05:36;99071.85;;;9.39;86.05
79374;BME280;68844;53.128;17.958;2023-04-01T01:08:12;99068.95;;;9.43;85.90
79374;BME280;68844;53.128;17.958;2023-04-01T01:10:43;99066.59;;;9.41;86.02
79374;BME280;68844;53.128;17.958;2023-04-01T01:13:31;99066.09;;;9.41;86.17
79374;BME280;68844;53.128;17.958;2023-04-01T01:16:32;99062.10;;;9.36;86.24
79374;BME280;68844;53.128;17.958;2023-04-01T01:19:07;99062.23;;;9.34;86.01
79374;BME280;68844;53.128;17.958;2023-04-01T01:24:42;99065.25;;;9.45;86.30
79374;BME280;68844;53.128;17.958;2023-04-01T01:27:11;99065.24;;;9.37;86.85
79374;BME280;68844;53.128;17.958;2023-04-01T01:29:52;99063.76;;;9.31;86.37
79374;BME280;68844;53.128;17.958;2023-04-01T01:37:43;99068.89;;;9.12;86.99
79374;BME280;68844;53.128;17.958;2023-04-01T01:40:11;99068.94;;;9.09;87.06
79374;BME280;68844;53.128;17.958;2023-04-01T01:42:45;99070.85;;;9.03;87.10
79374;BME280;68844;53.128;17.958;2023-04-01T01:45:14;99072.55;;;9.02;87.40
79374;BME280;68844;53.128;17.958;2023-04-01T01:47:45;99069.37;;;8.97;87.29
79374;BME280;68844;53.128;17.958;2023-04-01T01:50:13;99065.79;;;8.89;87.50
79374;BME280;68844;53.128;17.958;2023-04-01T01:52:40;99064.74;;;8.92;87.65
79374;BME280;68844;53.128;17.958;2023-04-01T01:55:28;99065.77;;;8.94;87.71
79374;BME280;68844;53.128;17.958;2023-04-01T01:57:59;99066.52;;;8.86;87.75
79374;BME280;68844;53.128;17.958;2023-04-01T02:00:27;99066.80;;;8.82;87.73
79374;BME280;68844;53.128;17.958;2023-04-01T02:02:55;99069.23;;;8.83;87.55
79374;BME280;68844;53.128;17.958;2023-04-01T02:05:26;99065.77;;;8.85;87.67
79374;BME280;68844;53.128;17.958;2023-04-01T02:08:07;99070.25;;;8.79;87.64
79374;BME280;68844;53.128;17.958;2023-04-01T02:10:41;99069.54;;;8.79;87.62
79374;BME280;68844;53.128;17.958;2023-04-01T02:13:31;99069.11;;;8.73;87.88
79374;BME280;68844;53.128;17.958;2023-04-01T02:16:11;99068.38;;;8.71;87.55
79374;BME280;68844;53.128;17.958;2023-04-01T02:18:41;99070.89;;;8.70;87.54
79374;BME280;68844;53.128;17.958;2023-04-01T02:21:10;99067.84;;;8.69;87.47
79374;BME280;68844;53.128;17.958;2023-04-01T02:23:38;99070.80;;;8.72;87.58
79374;BME280;68844;53.128;17.958;2023-04-01T02:26:07;99067.46;;;8.72;87.41
79374;BME280;68844;53.128;17.958;2023-04-01T02:28:37;99070.89;;;8.73;87.34
79374;BME280;68844;53.128;17.958;2023-04-01T02:31:05;99069.56;;;8.70;87.42
79374;BME280;68844;53.128;17.958;2023-04-01T02:33:34;99074.08;;;8.64;87.18
79374;BME280;68844;53.128;17.958;2023-04-01T02:36:01;99075.92;;;8.60;87.48
79374;BME280;68844;53.128;17.958;2023-04-01T02:38:27;99078.25;;;8.59;87.66
79374;BME280;68844;53.128;17.958;2023-04-01T02:41:00;99080.61;;;8.51;87.69
79374;BME280;68844;53.128;17.958;2023-04-01T02:43:27;99079.26;;;8.39;87.98
79374;BME280;68844;53.128;17.958;2023-04-01T02:45:54;99085.73;;;8.39;88.30
79374;BME280;68844;53.128;17.958;2023-04-01T02:48:20;99082.27;;;8.34;88.22
79374;BME280;68844;53.128;17.958;2023-04-01T02:50:48;99090.64;;;8.32;88.51
79374;BME280;68844;53.128;17.958;2023-04-01T02:53:15;99090.43;;;8.28;88.47
79374;BME280;68844;53.128;17.958;2023-04-01T02:55:42;99090.04;;;8.28;88.28
79374;BME280;68844;53.128;17.958;2023-04-01T02:58:08;99096.20;;;8.33;88.23
79374;BME280;68844;53.128;17.958;2023-04-01T03:00:36;99096.96;;;8.29;88.35
79374;BME280;68844;53.128;17.958;2023-04-01T03:03:03;99098.52;;;8.23;88.80
79374;BME280;68844;53.128;17.958;2023-04-01T03:05:30;99101.20;;;8.24;88.46
79374;BME280;68844;53.128;17.958;2023-04-01T03:07:57;99100.64;;;8.27;88.51
79374;BME280;68844;53.128;17.958;2023-04-01T03:10:23;99103.67;;;8.24;88.28
79374;BME280;68844;53.128;17.958;2023-04-01T03:12:50;99104.38;;;8.19;88.50
79374;BME280;68844;53.128;17.958;2023-04-01T03:15:17;99105.98;;;8.19;88.60
79374;BME280;68844;53.128;17.958;2023-04-01T03:17:44;99107.67;;;8.20;88.38
79374;BME280;68844;53.128;17.958;2023-04-01T03:20:11;99108.10;;;8.12;88.60
79374;BME280;68844;53.128;17.958;2023-04-01T03:22:38;99109.79;;;8.15;88.61
79374;BME280;68844;53.128;17.958;2023-04-01T03:25:06;99112.01;;;8.16;88.77
79374;BME280;68844;53.128;17.958;2023-04-01T03:27:34;99112.03;;;8.16;88.56
79374;BME280;68844;53.128;17.958;2023-04-01T03:30:05;99113.27;;;8.09;88.85
79374;BME280;68844;53.128;17.958;2023-04-01T03:32:34;99115.79;;;8.10;89.17
79374;BME280;68844;53.128;17.958;2023-04-01T03:35:01;99119.98;;;8.13;88.77
79374;BME280;68844;53.128;17.958;2023-04-01T03:37:28;99120.61;;;8.09;88.90
79374;BME280;68844;53.128;17.958;2023-04-01T03:39:54;99122.12;;;8.14;88.60
79374;BME280;68844;53.128;17.958;2023-04-01T03:42:21;99122.08;;;8.10;88.77
79374;BME280;68844;53.128;17.958;2023-04-01T03:44:48;99122.54;;;8.03;88.58
79374;BME280;68844;53.128;17.958;2023-04-01T03:47:15;99124.05;;;8.09;88.50
79374;BME280;68844;53.128;17.958;2023-04-01T03:49:41;99125.30;;;7.99;88.50
79374;BME280;68844;53.128;17.958;2023-04-01T03:52:10;99128.84;;;7.99;88.70
79374;BME280;68844;53.128;17.958;2023-04-01T03:54:37;99128.73;;;7.91;88.43
79374;BME280;68844;53.128;17.958;2023-04-01T03:57:03;99134.63;;;7.89;88.42
79374;BME280;68844;53.128;17.958;2023-04-01T03:59:30;99143.30;;;7.80;88.74
79374;BME280;68844;53.128;17.958;2023-04-01T04:01:57;99140.95;;;7.72;89.09
79374;BME280;68844;53.128;17.958;2023-04-01T04:04:24;99147.93;;;7.70;89.17
79374;BME280;68844;53.128;17.958;2023-04-01T04:06:51;99149.53;;;7.67;89.16
79374;BME280;68844;53.128;17.958;2023-04-01T04:09:18;99155.65;;;7.67;89.23
79374;BME280;68844;53.128;17.958;2023-04-01T04:11:45;99157.44;;;7.64;89.30
79374;BME280;68844;53.128;17.958;2023-04-01T04:14:12;99157.95;;;7.59;89.20
79374;BME280;68844;53.128;17.958;2023-04-01T04:16:38;99161.73;;;7.66;89.23
79374;BME280;68844;53.128;17.958;2023-04-01T04:19:05;99166.03;;;7.62;89.27
79374;BME280;68844;53.128;17.958;2023-04-01T04:21:32;99166.64;;;7.55;89.41
79374;BME280;68844;53.128;17.958;2023-04-01T04:24:00;99165.81;;;7.57;89.55
79374;BME280;68844;53.128;17.958;2023-04-01T04:26:27;99168.42;;;7.58;89.24
79374;BME280;68844;53.128;17.958;2023-04-01T04:28:58;99170.09;;;7.61;89.43
79374;BME280;68844;53.128;17.958;2023-04-01T04:31:25;99175.28;;;7.55;89.32
79374;BME280;68844;53.128;17.958;2023-04-01T04:33:54;99175.15;;;7.56;89.57
79374;BME280;68844;53.128;17.958;2023-04-01T04:36:21;99180.16;;;7.52;89.51
79374;BME280;68844;53.128;17.958;2023-04-01T04:38:49;99185.01;;;7.51;89.89
79374;BME280;68844;53.128;17.958;2023-04-01T04:41:17;99180.97;;;7.49;89.77
79374;BME280;68844;53.128;17.958;2023-04-01T04:43:52;99186.84;;;7.42;89.29
79374;BME280;68844;53.128;17.958;2023-04-01T04:46:20;99187.77;;;7.39;89.57
79374;BME280;68844;53.128;17.958;2023-04-01T04:48:47;99191.05;;;7.35;89.34
79374;BME280;68844;53.128;17.958;2023-04-01T04:51:17;99191.14;;;7.33;89.01
79374;BME280;68844;53.128;17.958;2023-04-01T04:53:44;99194.37;;;7.30;89.52
79374;BME280;68844;53.128;17.958;2023-04-01T04:56:12;99195.97;;;7.27;89.66
79374;BME280;68844;53.128;17.958;2023-04-01T04:58:44;99201.40;;;7.21;89.73
79374;BME280;68844;53.128;17.958;2023-04-01T05:01:16;99202.27;;;7.21;89.61
79374;BME280;68844;53.128;17.958;2023-04-01T05:03:44;99208.45;;;7.20;89.42
79374;BME280;68844;53.128;17.958;2023-04-01T05:06:13;99210.21;;;7.23;89.26
79374;BME280;68844;53.128;17.958;2023-04-01T05:08:42;99211.79;;;7.23;89.15
79374;BME280;68844;53.128;17.958;2023-04-01T05:11:13;99214.27;;;7.15;89.53
79374;BME280;68844;53.128;17.958;2023-04-01T05:13:41;99218.89;;;7.16;89.44
79374;BME280;68844;53.128;17.958;2023-04-01T05:16:10;99220.02;;;7.02;88.90
79374;BME280;68844;53.128;17.958;2023-04-01T05:18:37;99222.90;;;7.04;89.36
79374;BME280;68844;53.128;17.958;2023-04-01T05:21:06;99226.56;;;7.01;89.21
79374;BME280;68844;53.128;17.958;2023-04-01T05:23:32;99227.98;;;6.98;89.49
79374;BME280;68844;53.128;17.958;2023-04-01T05:26:13;99231.30;;;7.03;89.24
79374;BME280;68844;53.128;17.958;2023-04-01T05:28:41;99231.17;;;7.08;89.73
79374;BME280;68844;53.128;17.958;2023-04-01T05:31:07;99241.48;;;7.01;89.56
79374;BME280;68844;53.128;17.958;2023-04-01T05:33:38;99240.06;;;7.04;89.20
79374;BME280;68844;53.128;17.958;2023-04-01T05:36:06;99241.67;;;7.01;88.57
79374;BME280;68844;53.128;17.958;2023-04-01T05:38:33;99241.39;;;6.92;87.75
79374;BME280;68844;53.128;17.958;2023-04-01T05:41:01;99241.63;;;6.80;88.12
79374;BME280;68844;53.128;17.958;2023-04-01T05:43:29;99242.41;;;6.82;87.95
79374;BME280;68844;53.128;17.958;2023-04-01T05:45:57;99244.86;;;6.70;88.22
79374;BME280;68844;53.128;17.958;2023-04-01T05:48:35;99247.45;;;6.76;87.94
79374;BME280;68844;53.128;17.958;2023-04-01T05:51:02;99249.65;;;6.75;87.61
79374;BME280;68844;53.128;17.958;2023-04-01T05:53:29;99252.42;;;6.75;87.64
79374;BME280;68844;53.128;17.958;2023-04-01T05:55:56;99255.70;;;6.71;87.86
79374;BME280;68844;53.128;17.958;2023-04-01T05:58:23;99256.45;;;6.75;88.24
79374;BME280;68844;53.128;17.958;2023-04-01T06:00:50;99261.13;;;6.76;88.42
79374;BME280;68844;53.128;17.958;2023-04-01T06:03:16;99264.05;;;6.77;88.22
79374;BME280;68844;53.128;17.958;2023-04-01T06:05:43;99266.77;;;6.84;88.11
79374;BME280;68844;53.128;17.958;2023-04-01T06:08:16;99268.16;;;6.86;88.35
79374;BME280;68844;53.128;17.958;2023-04-01T06:13:28;99272.30;;;6.90;87.88
79374;BME280;68844;53.128;17.958;2023-04-01T06:21:44;99279.70;;;6.87;86.34
79374;BME280;68844;53.128;17.958;2023-04-01T06:24:36;99282.23;;;6.69;87.09
79374;BME280;68844;53.128;17.958;2023-04-01T06:30:07;99285.98;;;6.65;86.54
79374;BME280;68844;53.128;17.958;2023-04-01T06:36:11;99290.69;;;6.71;86.74
79374;BME280;68844;53.128;17.958;2023-04-01T06:42:00;99300.67;;;6.81;87.00
79374;BME280;68844;53.128;17.958;2023-04-01T06:45:03;99301.55;;;6.82;86.52
79374;BME280;68844;53.128;17.958;2023-04-01T06:51:01;99306.64;;;6.95;86.70
79374;BME280;68844;53.128;17.958;2023-04-01T06:54:09;99311.14;;;7.03;86.32
79374;BME280;68844;53.128;17.958;2023-04-01T06:57:05;99313.03;;;7.07;85.43
79374;BME280;68844;53.128;17.958;2023-04-01T06:59:37;99310.66;;;7.05;85.99
79374;BME280;68844;53.128;17.958;2023-04-01T07:04:43;99319.21;;;7.03;85.48
79374;BME280;68844;53.128;17.958;2023-04-01T07:09:58;99326.74;;;7.05;85.01
79374;BME280;68844;53.128;17.958;2023-04-01T07:15:24;99332.95;;;6.94;85.09
79374;BME280;68844;53.128;17.958;2023-04-01T07:17:56;99335.05;;;7.07;85.50
79374;BME280;68844;53.128;17.958;2023-04-01T07:20:27;99335.25;;;7.25;84.68
79374;BME280;68844;53.128;17.958;2023-04-01T07:22:58;99338.75;;;7.25;84.00
79374;BME280;68844;53.128;17.958;2023-04-01T07:26:06;99338.63;;;7.24;83.87
79374;BME280;68844;53.128;17.958;2023-04-01T07:29:09;99341.29;;;7.32;84.95
79374;BME280;68844;53.128;17.958;2023-04-01T07:34:50;99340.48;;;7.36;84.45
79374;BME280;68844;53.128;17.958;2023-04-01T07:49:54;99364.44;;;7.23;84.29
79374;BME280;68844;53.128;17.958;2023-04-01T07:55:35;99374.95;;;7.10;84.31
79374;BME280;68844;53.128;17.958;2023-04-01T08:01:30;99386.56;;;7.03;84.73
79374;BME280;68844;53.128;17.958;2023-04-01T08:12:55;99404.14;;;7.05;83.88
79374;BME280;68844;53.128;17.958;2023-04-01T08:15:55;99405.62;;;6.93;84.03
79374;BME280;68844;53.128;17.958;2023-04-01T08:21:21;99412.63;;;7.09;84.78
79374;BME280;68844;53.128;17.958;2023-04-01T08:23:52;99420.20;;;7.03;84.25
79374;BME280;68844;53.128;17.958;2023-04-01T08:26:30;99422.67;;;7.22;83.05
79374;BME280;68844;53.128;17.958;2023-04-01T08:29:02;99424.84;;;6.96;83.92
79374;BME280;68844;53.128;17.958;2023-04-01T08:31:43;99425.94;;;7.09;84.58
79374;BME280;68844;53.128;17.958;2023-04-01T08:34:23;99429.52;;;7.11;83.43
79374;BME280;68844;53.128;17.958;2023-04-01T08:36:53;99430.09;;;7.31;83.61
79374;BME280;68844;53.128;17.958;2023-04-01T08:39:29;99427.11;;;7.50;82.94
79374;BME280;68844;53.128;17.958;2023-04-01T08:42:20;99433.41;;;7.69;82.07
79374;BME280;68844;53.128;17.958;2023-04-01T08:57:00;99446.54;;;8.06;80.29
79374;BME280;68844;53.128;17.958;2023-04-01T09:00:00;99448.23;;;8.12;79.67
79374;BME280;68844;53.128;17.958;2023-04-01T09:03:02;99456.46;;;8.01;79.69
79374;BME280;68844;53.128;17.958;2023-04-01T09:11:32;99461.89;;;8.15;79.10
79374;BME280;68844;53.128;17.958;2023-04-01T09:14:28;99465.45;;;8.21;79.46
79374;BME280;68844;53.128;17.958;2023-04-01T09:17:34;99465.26;;;8.30;78.06
79374;BME280;68844;53.128;17.958;2023-04-01T09:23:26;99470.27;;;8.13;78.61
79374;BME280;68844;53.128;17.958;2023-04-01T09:32:22;99479.34;;;7.95;78.78
79374;BME280;68844;53.128;17.958;2023-04-01T09:35:42;99482.85;;;7.95;78.63
79374;BME280;68844;53.128;17.958;2023-04-01T09:38:28;99485.17;;;7.99;79.03
79374;BME280;68844;53.128;17.958;2023-04-01T09:41:27;99493.82;;;7.98;78.92
79374;BME280;68844;53.128;17.958;2023-04-01T09:44:18;99495.88;;;7.88;78.94
79374;BME280;68844;53.128;17.958;2023-04-01T09:50:20;99504.70;;;8.24;78.37
79374;BME280;68844;53.128;17.958;2023-04-01T09:53:11;99505.91;;;8.41;77.15
79374;BME280;68844;53.128;17.958;2023-04-01T09:55:49;99509.11;;;8.53;76.96
79374;BME280;68844;53.128;17.958;2023-04-01T10:04:17;99516.50;;;8.90;74.68
79374;BME280;68844;53.128;17.958;2023-04-01T10:15:34;99524.41;;;8.75;75.30
79374;BME280;68844;53.128;17.958;2023-04-01T10:18:47;99526.55;;;8.70;76.57
79374;BME280;68844;53.128;17.958;2023-04-01T10:21:40;99528.33;;;8.67;77.51
79374;BME280;68844;53.128;17.958;2023-04-01T10:24:43;99528.95;;;8.63;76.52
79374;BME280;68844;53.128;17.958;2023-04-01T10:27:26;99532.48;;;8.73;76.36
79374;BME280;68844;53.128;17.958;2023-04-01T10:42:07;99541.58;;;9.16;74.00
79374;BME280;68844;53.128;17.958;2023-04-01T11:18:44;99568.56;;;8.89;74.92
79374;BME280;68844;53.128;17.958;2023-04-01T11:21:39;99574.28;;;8.72;74.43
79374;BME280;68844;53.128;17.958;2023-04-01T11:32:53;99585.95;;;8.08;76.49
79374;BME280;68844;53.128;17.958;2023-04-01T11:38:42;99601.45;;;8.01;77.31
79374;BME280;68844;53.128;17.958;2023-04-01T11:45:01;99609.12;;;8.15;77.78
79374;BME280;68844;53.128;17.958;2023-04-01T11:50:59;99617.46;;;8.14;76.50
79374;BME280;68844;53.128;17.958;2023-04-01T12:08:06;99629.79;;;8.27;75.38
79374;BME280;68844;53.128;17.958;2023-04-01T12:10:48;99634.13;;;8.35;74.88
79374;BME280;68844;53.128;17.958;2023-04-01T12:16:04;99638.33;;;8.44;74.51
79374;BME280;68844;53.128;17.958;2023-04-01T12:18:55;99639.16;;;8.86;73.02
79374;BME280;68844;53.128;17.958;2023-04-01T12:21:42;99640.23;;;8.65;73.94
79374;BME280;68844;53.128;17.958;2023-04-01T12:24:40;99646.30;;;8.66;73.35
79374;BME280;68844;53.128;17.958;2023-04-01T12:27:26;99656.04;;;8.57;74.17
79374;BME280;68844;53.128;17.958;2023-04-01T12:36:27;99667.69;;;8.51;74.04
79374;BME280;68844;53.128;17.958;2023-04-01T12:39:13;99677.02;;;8.39;73.16
79374;BME280;68844;53.128;17.958;2023-04-01T12:48:23;99674.64;;;8.54;71.99
79374;BME280;68844;53.128;17.958;2023-04-01T13:03:14;99691.39;;;8.88;69.81
79374;BME280;68844;53.128;17.958;2023-04-01T13:11:31;99703.66;;;9.11;70.68
79374;BME280;68844;53.128;17.958;2023-04-01T13:14:18;99708.77;;;9.37;69.13
79374;BME280;68844;53.128;17.958;2023-04-01T13:17:17;99716.58;;;9.33;70.67
79374;BME280;68844;53.128;17.958;2023-04-01T13:20:11;99715.45;;;9.34;69.11
79374;BME280;68844;53.128;17.958;2023-04-01T13:34:13;99726.74;;;8.60;69.17
79374;BME280;68844;53.128;17.958;2023-04-01T13:36:59;99728.40;;;8.80;69.40
79374;BME280;68844;53.128;17.958;2023-04-01T13:39:41;99728.65;;;8.76;69.31
79374;BME280;68844;53.128;17.958;2023-04-01T13:45:08;99737.04;;;8.72;69.56
79374;BME280;68844;53.128;17.958;2023-04-01T13:48:04;99742.29;;;8.53;69.97
79374;BME280;68844;53.128;17.958;2023-04-01T13:54:04;99750.11;;;8.41;70.92
79374;BME280;68844;53.128;17.958;2023-04-01T13:56:55;99751.23;;;8.37;71.30
79374;BME280;68844;53.128;17.958;2023-04-01T14:02:35;99762.16;;;8.22;70.51
79374;BME280;68844;53.128;17.958;2023-04-01T14:05:28;99770.00;;;8.09;71.95
79374;BME280;68844;53.128;17.958;2023-04-01T14:08:20;99777.39;;;8.02;72.25
79374;BME280;68844;53.128;17.958;2023-04-01T14:27:41;99789.50;;;7.62;72.88
79374;BME280;68844;53.128;17.958;2023-04-01T14:32:52;99790.63;;;7.64;72.83
79374;BME280;68844;53.128;17.958;2023-04-01T14:38:19;99801.83;;;7.56;73.50
79374;BME280;68844;53.128;17.958;2023-04-01T14:49:14;99818.81;;;7.23;72.33
79374;BME280;68844;53.128;17.958;2023-04-01T14:51:41;99821.25;;;7.11;73.33
79374;BME280;68844;53.128;17.958;2023-04-01T14:56:49;99830.19;;;7.08;73.09
79374;BME280;68844;53.128;17.958;2023-04-01T15:02:03;99838.67;;;6.94;73.37
79374;BME280;68844;53.128;17.958;2023-04-01T15:07:54;99847.67;;;6.87;73.49
79374;BME280;68844;53.128;17.958;2023-04-01T15:13:15;99857.25;;;6.66;74.20
79374;BME280;68844;53.128;17.958;2023-04-01T15:16:19;99860.27;;;6.62;73.61
79374;BME280;68844;53.128;17.958;2023-04-01T15:27:29;99880.23;;;6.46;74.71
79374;BME280;68844;53.128;17.958;2023-04-01T15:30:21;99883.82;;;6.54;74.38
79374;BME280;68844;53.128;17.958;2023-04-01T15:33:46;99887.58;;;6.52;74.05
79374;BME280;68844;53.128;17.958;2023-04-01T15:36:27;99891.84;;;6.35;74.10
79374;BME280;68844;53.128;17.958;2023-04-01T15:44:42;99906.98;;;6.39;74.72
79374;BME280;68844;53.128;17.958;2023-04-01T16:03:37;99934.07;;;6.06;75.26
79374;BME280;68844;53.128;17.958;2023-04-01T16:06:30;99933.45;;;6.01;75.33
79374;BME280;68844;53.128;17.958;2023-04-01T16:17:30;99956.82;;;5.67;75.92
79374;BME280;68844;53.128;17.958;2023-04-01T16:22:53;99969.02;;;5.64;75.92
79374;BME280;68844;53.128;17.958;2023-04-01T16:25:44;99969.08;;;5.56;76.21
79374;BME280;68844;53.128;17.958;2023-04-01T16:31:10;99981.65;;;5.56;76.26
79374;BME280;68844;53.128;17.958;2023-04-01T16:36:17;99986.43;;;5.44;75.57
79374;BME280;68844;53.128;17.958;2023-04-01T16:38:52;99994.08;;;5.37;75.84
79374;BME280;68844;53.128;17.958;2023-04-01T16:41:26;100000.17;;;5.31;76.13
79374;BME280;68844;53.128;17.958;2023-04-01T16:44:17;100002.89;;;5.21;76.43
79374;BME280;68844;53.128;17.958;2023-04-01T16:46:51;100013.38;;;5.20;77.07
79374;BME280;68844;53.128;17.958;2023-04-01T16:49:32;100016.76;;;5.15;77.44
79374;BME280;68844;53.128;17.958;2023-04-01T16:54:57;100024.48;;;5.18;77.38
79374;BME280;68844;53.128;17.958;2023-04-01T16:57:53;100032.33;;;5.11;77.26
79374;BME280;68844;53.128;17.958;2023-04-01T17:00:39;100036.35;;;5.10;77.38
79374;BME280;68844;53.128;17.958;2023-04-01T17:11:16;100052.45;;;5.02;75.74
79374;BME280;68844;53.128;17.958;2023-04-01T17:16:39;100066.55;;;4.80;75.87
79374;BME280;68844;53.128;17.958;2023-04-01T17:30:31;100075.82;;;4.63;76.41
79374;BME280;68844;53.128;17.958;2023-04-01T17:38:54;100090.73;;;4.65;75.82
79374;BME280;68844;53.128;17.958;2023-04-01T17:41:36;100102.38;;;4.46;76.48
79374;BME280;68844;53.128;17.958;2023-04-01T17:44:31;100103.35;;;4.52;76.07
79374;BME280;68844;53.128;17.958;2023-04-01T17:47:13;100109.29;;;4.43;75.92
79374;BME280;68844;53.128;17.958;2023-04-01T17:52:37;100120.47;;;4.38;76.72
79374;BME280;68844;53.128;17.958;2023-04-01T17:55:24;100124.87;;;4.24;77.54
79374;BME280;68844;53.128;17.958;2023-04-01T17:57:54;100130.55;;;4.14;78.28
79374;BME280;68844;53.128;17.958;2023-04-01T18:00:33;100133.40;;;4.16;78.36
79374;BME280;68844;53.128;17.958;2023-04-01T18:03:24;100135.73;;;4.15;78.17
79374;BME280;68844;53.128;17.958;2023-04-01T18:11:47;100155.31;;;4.00;78.63
79374;BME280;68844;53.128;17.958;2023-04-01T18:14:31;100157.67;;;4.02;78.56
79374;BME280;68844;53.128;17.958;2023-04-01T18:17:21;100159.89;;;3.81;79.33
79374;BME280;68844;53.128;17.958;2023-04-01T18:22:44;100168.19;;;3.87;79.24
79374;BME280;68844;53.128;17.958;2023-04-01T18:25:33;100176.98;;;3.85;79.16
79374;BME280;68844;53.128;17.958;2023-04-01T18:28:42;100178.77;;;3.88;79.67
79374;BME280;68844;53.128;17.958;2023-04-01T18:31:15;100186.67;;;3.78;79.90
79374;BME280;68844;53.128;17.958;2023-04-01T18:36:46;100188.70;;;3.61;81.76
79374;BME280;68844;53.128;17.958;2023-04-01T18:39:33;100193.23;;;3.61;81.72
79374;BME280;68844;53.128;17.958;2023-04-01T18:44:50;100199.66;;;3.52;82.48
79374;BME280;68844;53.128;17.958;2023-04-01T18:47:40;100205.36;;;3.49;82.79
79374;BME280;68844;53.128;17.958;2023-04-01T18:52:51;100209.96;;;3.41;83.15
79374;BME280;68844;53.128;17.958;2023-04-01T18:55:29;100211.01;;;3.51;83.00
79374;BME280;68844;53.128;17.958;2023-04-01T19:01:26;100224.05;;;3.42;83.50
79374;BME280;68844;53.128;17.958;2023-04-01T19:04:19;100228.66;;;3.35;83.80
79374;BME280;68844;53.128;17.958;2023-04-01T19:06:56;100235.47;;;3.34;83.43
79374;BME280;68844;53.128;17.958;2023-04-01T19:09:27;100237.42;;;3.28;83.42
79374;BME280;68844;53.128;17.958;2023-04-01T19:12:34;100238.61;;;3.24;83.46
79374;BME280;68844;53.128;17.958;2023-04-01T19:15:19;100243.30;;;3.24;83.54
79374;BME280;68844;53.128;17.958;2023-04-01T19:20:41;100249.81;;;3.22;83.71
79374;BME280;68844;53.128;17.958;2023-04-01T19:23:44;100252.63;;;3.16;83.99
79374;BME280;68844;53.128;17.958;2023-04-01T19:26:17;100258.77;;;3.14;84.25
79374;BME280;68844;53.128;17.958;2023-04-01T19:28:56;100266.26;;;3.19;84.22
79374;BME280;68844;53.128;17.958;2023-04-01T19:31:33;100269.14;;;3.16;83.58
79374;BME280;68844;53.128;17.958;2023-04-01T19:36:49;100280.65;;;3.06;84.88
79374;BME280;68844;53.128;17.958;2023-04-01T19:39:45;100283.33;;;3.04;84.75
79374;BME280;68844;53.128;17.958;2023-04-01T19:42:42;100287.25;;;3.06;84.32
79374;BME280;68844;53.128;17.958;2023-04-01T19:51:11;100295.83;;;2.99;84.87
79374;BME280;68844;53.128;17.958;2023-04-01T19:53:58;100298.92;;;2.95;85.10
79374;BME280;68844;53.128;17.958;2023-04-01T19:56:36;100304.63;;;2.96;84.83
79374;BME280;68844;53.128;17.958;2023-04-01T19:59:18;100302.73;;;3.01;84.62
79374;BME280;68844;53.128;17.958;2023-04-01T20:01:53;100307.98;;;3.00;84.65
79374;BME280;68844;53.128;17.958;2023-04-01T20:04:30;100309.89;;;2.94;85.47
79374;BME280;68844;53.128;17.958;2023-04-01T20:07:08;100310.77;;;2.95;85.50
79374;BME280;68844;53.128;17.958;2023-04-01T20:09:54;100319.98;;;2.90;85.01
79374;BME280;68844;53.128;17.958;2023-04-01T20:12:53;100322.23;;;2.89;85.36
79374;BME280;68844;53.128;17.958;2023-04-01T20:15:35;100323.98;;;2.89;85.49
79374;BME280;68844;53.128;17.958;2023-04-01T20:21:02;100336.83;;;2.95;85.37
79374;BME280;68844;53.128;17.958;2023-04-01T20:23:38;100340.90;;;2.93;85.47
79374;BME280;68844;53.128;17.958;2023-04-01T20:26:09;100342.37;;;2.96;84.96
79374;BME280;68844;53.128;17.958;2023-04-01T20:28:47;100342.48;;;2.93;85.30
79374;BME280;68844;53.128;17.958;2023-04-01T20:31:23;100343.55;;;2.87;85.31
79374;BME280;68844;53.128;17.958;2023-04-01T20:36:50;100352.59;;;2.92;85.68